createdAt,value
2019-05-09T00:01:04.068Z,21.17
2019-05-09T00:03:33.665Z,20.17
2019-05-09T00:06:04.590Z,22.50
2019-05-09T00:08:34.004Z,21.50
2019-05-09T00:11:03.820Z,17.30
2019-05-09T00:13:34.120Z,17.07
2019-05-09T00:16:03.811Z,15.73
2019-05-09T00:18:33.678Z,19.00
2019-05-09T00:21:09.524Z,24.87
2019-05-09T00:23:38.710Z,21.37
2019-05-09T00:26:07.940Z,22.00
2019-05-09T00:28:39.248Z,23.10
2019-05-09T00:31:18.729Z,15.23
2019-05-09T00:33:53.403Z,20.10
2019-05-09T00:36:23.241Z,22.43
2019-05-09T00:38:53.719Z,27.30
2019-05-09T00:41:23.939Z,19.90
2019-05-09T00:43:59.711Z,22.33
2019-05-09T00:46:37.957Z,23.20
2019-05-09T00:49:14.293Z,24.33
2019-05-09T00:51:43.772Z,14.90
2019-05-09T00:54:13.566Z,26.10
2019-05-09T00:56:43.571Z,20.70
2019-05-09T00:59:13.499Z,18.37
2019-05-09T01:01:43.729Z,20.67
2019-05-09T01:04:13.577Z,16.97
2019-05-09T01:06:43.465Z,18.63
2019-05-09T01:09:13.737Z,17.83
2019-05-09T01:11:43.972Z,19.53
2019-05-09T01:14:14.232Z,19.33
2019-05-09T01:16:43.995Z,21.43
2019-05-09T01:19:14.074Z,16.23
2019-05-09T01:21:43.953Z,17.37
2019-05-09T01:24:13.904Z,14.30
2019-05-09T01:26:43.632Z,16.73
2019-05-09T01:29:13.770Z,14.67
2019-05-09T01:31:43.695Z,17.37
2019-05-09T01:34:17.917Z,14.80
2019-05-09T01:37:06.801Z,18.03
2019-05-09T01:39:36.671Z,13.30
2019-05-09T01:42:06.448Z,15.80
2019-05-09T01:44:35.697Z,16.33
2019-05-09T01:47:04.988Z,17.57
2019-05-09T01:49:34.479Z,16.83
2019-05-09T01:52:03.936Z,19.37
2019-05-09T01:54:34.837Z,19.00
2019-05-09T01:57:04.257Z,21.93
2019-05-09T01:59:34.091Z,18.57
2019-05-09T02:02:08.246Z,23.87
2019-05-09T02:04:34.706Z,20.17
2019-05-09T02:07:04.428Z,24.47
2019-05-09T02:09:34.463Z,22.70
2019-05-09T02:12:04.247Z,27.83
2019-05-09T02:14:43.839Z,27.00
2019-05-09T02:17:54.874Z,25.83
2019-05-09T02:20:13.635Z,26.37
2019-05-09T02:22:43.532Z,25.77
2019-05-09T02:25:13.781Z,25.00
2019-05-09T02:27:43.693Z,28.07
2019-05-09T02:30:15.243Z,33.67
2019-05-09T02:32:50.178Z,30.17
2019-05-09T02:35:19.388Z,28.10
2019-05-09T02:37:49.881Z,30.70
2019-05-09T02:40:19.177Z,29.50
2019-05-09T02:42:49.085Z,30.13
2019-05-09T02:45:19.435Z,31.63
2019-05-09T02:47:49.147Z,33.27
2019-05-09T02:50:19.613Z,33.50
2019-05-09T02:52:49.012Z,36.07
2019-05-09T02:55:18.631Z,39.33
2019-05-09T02:57:49.632Z,38.20
2019-05-09T03:00:39.513Z,34.57
2019-05-09T03:03:21.302Z,37.63
2019-05-09T03:05:50.698Z,38.67
2019-05-09T03:08:19.908Z,37.03
2019-05-09T03:10:49.387Z,42.70
2019-05-09T03:13:19.359Z,36.33
2019-05-09T03:15:50.581Z,36.40
2019-05-09T03:18:19.775Z,41.97
2019-05-09T03:21:10.840Z,42.17
2019-05-09T03:23:40.099Z,37.27
2019-05-09T03:26:10.960Z,38.37
2019-05-09T03:29:05.011Z,39.50
2019-05-09T03:31:34.753Z,37.87
2019-05-09T03:34:04.032Z,39.13
2019-05-09T03:36:33.262Z,34.20
2019-05-09T03:39:02.457Z,41.93
2019-05-09T03:41:31.700Z,41.33
2019-05-09T03:44:00.921Z,38.30
2019-05-09T03:46:47.671Z,41.70
2019-05-09T03:49:18.018Z,38.80
2019-05-09T03:51:48.230Z,42.87
2019-05-09T03:54:18.408Z,35.47
2019-05-09T03:56:52.500Z,39.67
2019-05-09T03:59:21.745Z,39.83
2019-05-09T04:01:50.922Z,37.93
2019-05-09T04:04:20.144Z,44.80
2019-05-09T04:06:49.345Z,44.60
2019-05-09T04:09:18.577Z,37.67
2019-05-09T04:11:48.550Z,35.97
2019-05-09T04:14:21.671Z,41.50
2019-05-09T04:16:50.917Z,42.57
2019-05-09T04:19:20.122Z,42.43
2019-05-09T04:21:49.339Z,41.77
2019-05-09T04:24:18.632Z,49.07
2019-05-09T04:26:57.547Z,42.77
2019-05-09T04:29:28.571Z,43.93
2019-05-09T04:31:58.459Z,45.80
2019-05-09T04:34:27.751Z,46.23
2019-05-09T04:36:57.614Z,45.33
2019-05-09T04:39:28.418Z,44.57
2019-05-09T04:42:03.458Z,54.40
2019-05-09T04:44:37.555Z,52.33
2019-05-09T04:47:08.741Z,47.73
2019-05-09T04:49:41.084Z,50.10
2019-05-09T04:52:08.719Z,51.67
2019-05-09T04:54:38.518Z,46.13
2019-05-09T04:57:08.034Z,52.13
2019-05-09T04:59:37.496Z,48.27
2019-05-09T05:02:27.600Z,55.00
2019-05-09T05:04:58.553Z,51.97
2019-05-09T05:07:28.687Z,51.73
2019-05-09T05:09:58.352Z,48.87
2019-05-09T05:12:27.805Z,59.30
2019-05-09T05:14:58.075Z,60.00
2019-05-09T05:17:28.312Z,53.73
2019-05-09T05:19:58.863Z,58.93
2019-05-09T05:22:42.544Z,65.80
2019-05-09T05:25:11.758Z,63.67
2019-05-09T05:27:40.949Z,68.67
2019-05-09T05:30:10.739Z,74.63
2019-05-09T05:32:57.691Z,65.93
2019-05-09T05:35:38.384Z,69.50
2019-05-09T05:38:08.559Z,68.33
2019-05-09T05:40:45.579Z,56.97
2019-05-09T05:43:08.975Z,64.07
2019-05-09T05:45:47.936Z,71.27
2019-05-09T05:48:21.184Z,78.20
2019-05-09T05:50:50.508Z,81.37
2019-05-09T05:53:19.944Z,86.80
2019-05-09T05:55:52.521Z,86.93
2019-05-09T05:58:20.350Z,78.17
2019-05-09T06:00:49.537Z,92.90
2019-05-09T06:03:18.879Z,83.77
2019-05-09T06:05:51.453Z,92.90
2019-05-09T06:08:18.917Z,94.97
2019-05-09T06:10:48.373Z,86.30
2019-05-09T06:13:18.327Z,86.77
2019-05-09T06:15:48.154Z,81.57
2019-05-09T06:18:18.443Z,90.63
2019-05-09T06:20:48.628Z,93.27
2019-05-09T06:23:18.066Z,85.47
2019-05-09T06:25:48.425Z,75.87
2019-05-09T06:28:18.343Z,78.60
2019-05-09T06:30:47.820Z,82.77
2019-05-09T06:33:18.131Z,80.57
2019-05-09T06:35:48.103Z,74.33
2019-05-09T06:38:18.777Z,73.53
2019-05-09T06:40:48.285Z,80.07
2019-05-09T06:43:23.207Z,80.23
2019-05-09T06:46:10.945Z,75.93
2019-05-09T06:48:40.582Z,65.50
2019-05-09T06:51:09.807Z,56.97
2019-05-09T06:53:39.033Z,57.10
2019-05-09T06:56:08.252Z,57.63
2019-05-09T06:58:38.307Z,61.27
2019-05-09T07:01:25.472Z,64.70
2019-05-09T07:03:59.392Z,54.20
2019-05-09T07:06:33.238Z,58.70
2019-05-09T07:09:12.568Z,55.73
2019-05-09T07:11:41.885Z,55.40
2019-05-09T07:14:31.837Z,55.00
2019-05-09T07:16:59.026Z,53.93
2019-05-09T07:19:28.317Z,47.53
2019-05-09T07:22:01.893Z,48.07
2019-05-09T07:24:31.586Z,45.03
2019-05-09T07:27:00.850Z,48.80
2019-05-09T07:29:30.984Z,51.30
2019-05-09T07:32:09.809Z,52.27
2019-05-09T07:34:47.430Z,44.83
2019-05-09T07:37:18.620Z,45.23
2019-05-09T07:39:48.441Z,50.30
2019-05-09T07:42:18.106Z,38.60
2019-05-09T07:44:52.075Z,42.23
2019-05-09T07:47:18.241Z,40.80
2019-05-09T07:49:48.227Z,41.27
2019-05-09T07:52:18.622Z,35.50
2019-05-09T07:54:48.408Z,40.20
2019-05-09T07:57:18.269Z,35.20
2019-05-09T07:59:47.927Z,35.63
2019-05-09T08:02:17.750Z,35.33
2019-05-09T08:04:48.847Z,35.70
2019-05-09T08:07:17.954Z,33.37
2019-05-09T08:09:47.657Z,31.17
2019-05-09T08:12:17.926Z,31.23
2019-05-09T08:15:06.665Z,34.67
2019-05-09T08:17:18.262Z,33.57
2019-05-09T08:19:48.417Z,31.73
2019-05-09T08:22:21.275Z,34.33
2019-05-09T08:24:48.920Z,30.67
2019-05-09T08:27:18.127Z,33.03
2019-05-09T08:29:47.955Z,32.67
2019-05-09T08:32:18.078Z,33.13
2019-05-09T08:34:48.205Z,33.40
2019-05-09T08:37:17.717Z,34.17
2019-05-09T08:39:48.444Z,32.17
2019-05-09T08:42:20.123Z,28.47
2019-05-09T08:44:48.918Z,23.53
2019-05-09T08:47:18.532Z,28.10
2019-05-09T08:49:58.815Z,24.17
2019-05-09T08:52:28.794Z,23.77
2019-05-09T08:54:58.770Z,21.50
2019-05-09T08:57:28.868Z,24.37
2019-05-09T08:59:59.076Z,23.33
2019-05-09T09:02:28.548Z,21.37
2019-05-09T09:04:58.414Z,22.70
2019-05-09T09:07:29.741Z,18.27
2019-05-09T09:09:58.717Z,22.47
2019-05-09T09:12:34.245Z,18.83
2019-05-09T09:14:58.901Z,22.90
2019-05-09T09:17:28.176Z,24.27
2019-05-09T09:19:58.232Z,22.67
2019-05-09T09:22:28.481Z,26.73
2019-05-09T09:24:58.659Z,23.53
2019-05-09T09:27:28.469Z,20.10
2019-05-09T09:29:58.712Z,21.20
2019-05-09T09:32:28.585Z,25.50
2019-05-09T09:34:58.709Z,22.60
2019-05-09T09:37:37.672Z,19.80
2019-05-09T09:39:59.098Z,21.40
2019-05-09T09:42:28.467Z,18.80
2019-05-09T09:44:58.506Z,17.10
2019-05-09T09:47:28.700Z,16.60
2019-05-09T09:50:00.273Z,21.43
2019-05-09T09:52:29.818Z,17.27
2019-05-09T09:54:59.885Z,16.57
2019-05-09T09:57:29.123Z,16.87
2019-05-09T10:00:01.943Z,16.87
2019-05-09T10:02:33.989Z,17.10
2019-05-09T10:05:03.204Z,16.27
2019-05-09T10:07:32.432Z,17.87
2019-05-09T10:10:01.709Z,17.27
2019-05-09T10:12:31.021Z,17.37
2019-05-09T10:15:08.361Z,16.97
2019-05-09T10:17:58.266Z,12.77
2019-05-09T10:20:31.784Z,16.50
2019-05-09T10:23:11.191Z,14.37
2019-05-09T10:25:31.968Z,12.50
2019-05-09T10:28:01.148Z,13.20
2019-05-09T10:30:32.257Z,13.40
2019-05-09T10:33:01.459Z,12.57
2019-05-09T10:35:30.715Z,12.33
2019-05-09T10:37:59.897Z,14.23
2019-05-09T10:40:29.164Z,14.33
2019-05-09T10:43:08.228Z,12.00
2019-05-09T10:46:18.426Z,12.77
2019-05-09T10:48:55.314Z,12.97
2019-05-09T10:51:24.552Z,12.63
2019-05-09T10:53:53.777Z,11.77
2019-05-09T10:56:22.998Z,9.60
2019-05-09T10:58:52.232Z,13.47
2019-05-09T11:01:21.533Z,11.53
2019-05-09T11:03:50.760Z,8.87
2019-05-09T11:06:19.973Z,10.07
2019-05-09T11:08:49.188Z,9.20
2019-05-09T11:11:18.624Z,10.13
2019-05-09T11:13:48.432Z,5.73
2019-05-09T11:16:18.475Z,10.93
2019-05-09T11:18:48.426Z,5.90
2019-05-09T11:21:19.224Z,7.80
2019-05-09T11:23:49.184Z,8.40
2019-05-09T11:26:18.600Z,6.97
2019-05-09T11:28:47.858Z,6.53
2019-05-09T11:31:18.437Z,5.00
2019-05-09T11:33:48.534Z,6.60
2019-05-09T11:36:21.210Z,6.70
2019-05-09T11:38:49.741Z,5.03
2019-05-09T11:41:19.543Z,4.40
2019-05-09T11:43:48.928Z,6.70
2019-05-09T11:46:18.541Z,4.00
2019-05-09T11:48:47.875Z,4.23
2019-05-09T11:51:20.527Z,3.13
2019-05-09T11:53:48.826Z,5.17
2019-05-09T11:56:18.317Z,5.27
2019-05-09T11:58:48.354Z,3.87
2019-05-09T12:01:18.843Z,4.60
2019-05-09T12:03:52.055Z,6.90
2019-05-09T12:06:20.356Z,4.33
2019-05-09T12:08:49.769Z,4.87
2019-05-09T12:11:19.690Z,3.40
2019-05-09T12:13:49.296Z,2.60
2019-05-09T12:16:19.013Z,3.10
2019-05-09T12:18:49.104Z,5.37
2019-05-09T12:21:19.524Z,4.43
2019-05-09T12:23:49.896Z,5.30
2019-05-09T12:26:19.350Z,2.80
2019-05-09T12:28:49.053Z,5.00
2019-05-09T12:31:18.515Z,3.60
2019-05-09T12:33:48.611Z,3.00
2019-05-09T12:36:19.197Z,3.77
2019-05-09T12:38:49.966Z,3.60
2019-05-09T12:41:19.669Z,4.40
2019-05-09T12:43:49.067Z,3.00
2019-05-09T12:46:18.308Z,4.00
2019-05-09T12:48:48.177Z,3.63
2019-05-09T12:51:18.446Z,2.20
2019-05-09T12:53:48.654Z,2.77
2019-05-09T12:56:18.822Z,3.37
2019-05-09T12:58:48.355Z,4.37
2019-05-09T13:01:19.024Z,3.27
2019-05-09T13:03:48.686Z,4.87
2019-05-09T13:06:20.127Z,3.50
2019-05-09T13:08:49.393Z,3.63
2019-05-09T13:11:20.045Z,2.40
2019-05-09T13:13:49.637Z,5.20
2019-05-09T13:16:43.486Z,2.63
2019-05-09T13:19:21.651Z,3.93
2019-05-09T13:21:51.152Z,2.50
2019-05-09T13:24:20.729Z,1.97
2019-05-09T13:26:51.534Z,3.97
2019-05-09T13:29:20.988Z,4.73
2019-05-09T13:31:50.360Z,2.03
2019-05-09T13:34:19.760Z,5.07
2019-05-09T13:36:49.174Z,1.17
2019-05-09T13:39:18.611Z,4.20
2019-05-09T13:41:48.083Z,1.70
2019-05-09T13:44:18.114Z,2.47
2019-05-09T13:46:48.875Z,7.30
2019-05-09T13:49:19.447Z,3.07
2019-05-09T13:51:58.623Z,4.70
2019-05-09T13:54:20.061Z,3.70
2019-05-09T13:56:56.605Z,2.90
2019-05-09T13:59:20.487Z,3.03
2019-05-09T14:01:49.653Z,3.33
2019-05-09T14:04:19.004Z,2.77
2019-05-09T14:06:48.733Z,4.40
2019-05-09T14:09:19.946Z,2.57
2019-05-09T14:11:48.953Z,2.37
2019-05-09T14:14:18.277Z,3.23
2019-05-09T14:16:48.003Z,2.77
2019-05-09T14:19:42.529Z,3.60
2019-05-09T14:21:48.334Z,3.90
2019-05-09T14:24:19.297Z,2.47
2019-05-09T14:26:48.725Z,6.67
2019-05-09T14:29:20.521Z,3.13
2019-05-09T14:31:49.004Z,5.07
2019-05-09T14:34:19.683Z,2.80
2019-05-09T14:36:49.675Z,1.73
2019-05-09T14:39:19.165Z,4.20
2019-05-09T14:41:48.450Z,3.00
2019-05-09T14:44:18.306Z,1.97
2019-05-09T14:46:48.329Z,11.77
2019-05-09T14:49:17.839Z,3.60
2019-05-09T14:51:49.809Z,5.63
2019-05-09T14:54:18.107Z,5.50
2019-05-09T14:56:48.537Z,3.53
2019-05-09T14:59:18.665Z,3.20
2019-05-09T15:01:49.717Z,4.20
2019-05-09T15:04:19.170Z,2.87
2019-05-09T15:06:48.915Z,3.00
2019-05-09T15:09:18.429Z,4.13
2019-05-09T15:11:48.534Z,3.30
2019-05-09T15:14:18.457Z,2.97
2019-05-09T15:16:48.670Z,3.33
2019-05-09T15:19:18.425Z,5.97
2019-05-09T15:21:48.644Z,2.37
2019-05-09T15:24:19.507Z,2.77
2019-05-09T15:26:49.982Z,4.47
2019-05-09T15:29:20.507Z,1.30
2019-05-09T15:31:55.115Z,2.63
2019-05-09T15:34:24.169Z,3.03
2019-05-09T15:36:53.716Z,4.37
2019-05-09T15:39:22.926Z,2.33
2019-05-09T15:41:52.164Z,3.67
2019-05-09T15:44:21.482Z,1.93
2019-05-09T15:46:55.032Z,3.37
2019-05-09T15:49:24.303Z,3.03
2019-05-09T15:51:53.541Z,4.63
2019-05-09T15:54:22.793Z,4.03
2019-05-09T15:56:52.136Z,2.70
2019-05-09T15:59:21.333Z,6.73
2019-05-09T16:01:50.633Z,2.33
2019-05-09T16:04:19.852Z,1.70
2019-05-09T16:06:50.909Z,7.20
2019-05-09T16:09:20.026Z,5.97
2019-05-09T16:11:49.232Z,3.03
2019-05-09T16:14:18.680Z,2.87
2019-05-09T16:16:48.063Z,5.67
2019-05-09T16:19:17.296Z,3.70
2019-05-09T16:21:47.792Z,3.53
2019-05-09T16:24:18.874Z,4.50
2019-05-09T16:26:48.768Z,4.00
2019-05-09T16:29:18.252Z,5.33
2019-05-09T16:31:48.223Z,3.47
2019-05-09T16:34:17.959Z,2.63
2019-05-09T16:36:48.032Z,2.17
2019-05-09T16:39:18.056Z,3.43
2019-05-09T16:41:48.443Z,3.20
2019-05-09T16:44:18.538Z,5.67
2019-05-09T16:46:48.612Z,4.30
2019-05-09T16:49:20.043Z,6.00
2019-05-09T16:51:49.025Z,3.80
2019-05-09T16:54:18.413Z,3.00
2019-05-09T16:56:47.556Z,3.37
2019-05-09T16:59:17.890Z,4.37
2019-05-09T17:01:49.995Z,7.37
2019-05-09T17:04:19.111Z,2.83
2019-05-09T17:06:49.680Z,2.20
2019-05-09T17:09:19.270Z,2.87
2019-05-09T17:11:48.623Z,5.43
2019-05-09T17:14:19.315Z,3.97
2019-05-09T17:16:52.201Z,3.40
2019-05-09T17:19:19.712Z,2.97
2019-05-09T17:21:54.783Z,5.80
2019-05-09T17:24:24.104Z,2.57
2019-05-09T17:26:53.319Z,4.37
2019-05-09T17:29:22.548Z,3.33
2019-05-09T17:31:51.826Z,4.37
2019-05-09T17:34:21.044Z,5.73
2019-05-09T17:36:50.241Z,3.23
2019-05-09T17:39:19.489Z,1.93
2019-05-09T17:41:48.692Z,5.87
2019-05-09T17:44:18.575Z,3.17
2019-05-09T17:46:48.137Z,2.30
2019-05-09T17:49:17.592Z,3.60
2019-05-09T17:51:48.233Z,4.07
2019-05-09T17:54:18.297Z,4.13
2019-05-09T17:56:48.399Z,3.57
2019-05-09T17:59:18.453Z,3.00
2019-05-09T18:01:48.343Z,7.30
2019-05-09T18:04:18.091Z,2.33
2019-05-09T18:06:48.961Z,3.50
2019-05-09T18:09:19.084Z,6.27
2019-05-09T18:11:48.449Z,4.63
2019-05-09T18:14:18.539Z,2.27
2019-05-09T18:16:48.040Z,2.10
2019-05-09T18:19:17.906Z,3.77
2019-05-09T18:21:50.932Z,3.50
2019-05-09T18:24:18.105Z,4.07
2019-05-09T18:26:47.525Z,3.83
2019-05-09T18:29:18.097Z,4.97
2019-05-09T18:32:18.560Z,3.03
2019-05-09T18:34:48.629Z,4.57
2019-05-09T18:37:17.986Z,2.27
2019-05-09T18:39:48.438Z,3.43
2019-05-09T18:42:17.970Z,4.37
2019-05-09T18:44:47.684Z,5.17
2019-05-09T18:47:18.502Z,3.90
2019-05-09T18:49:47.845Z,3.70
2019-05-09T18:52:17.128Z,5.10
2019-05-09T18:54:46.338Z,2.90
2019-05-09T18:57:15.664Z,2.97
2019-05-09T18:59:44.894Z,4.73
2019-05-09T19:02:14.159Z,5.90
2019-05-09T19:04:43.378Z,5.30
2019-05-09T19:07:22.019Z,5.43
2019-05-09T19:09:43.764Z,5.80
2019-05-09T19:12:12.967Z,4.60
2019-05-09T19:14:43.449Z,3.90
2019-05-09T19:17:41.019Z,5.27
2019-05-09T19:20:21.193Z,4.23
2019-05-09T19:22:50.516Z,5.30
2019-05-09T19:25:19.722Z,4.53
2019-05-09T19:27:48.960Z,3.53
2019-05-09T19:30:18.380Z,3.57
2019-05-09T19:32:47.570Z,5.10
2019-05-09T19:35:16.815Z,2.40
2019-05-09T19:37:46.016Z,4.07
2019-05-09T19:40:19.983Z,3.07
2019-05-09T19:42:46.304Z,2.40
2019-05-09T19:45:15.929Z,5.13
2019-05-09T19:47:45.122Z,4.83
2019-05-09T19:50:14.644Z,3.07
2019-05-09T19:52:43.924Z,3.70
2019-05-09T19:55:13.230Z,3.77
2019-05-09T19:57:42.531Z,6.57
2019-05-09T20:00:13.237Z,2.03
2019-05-09T20:02:42.583Z,2.77
2019-05-09T20:05:12.500Z,4.47
2019-05-09T20:07:41.692Z,3.23
2019-05-09T20:10:29.064Z,5.77
2019-05-09T20:13:13.827Z,4.70
2019-05-09T20:15:44.124Z,6.67
2019-05-09T20:18:14.115Z,4.27
2019-05-09T20:20:43.318Z,4.33
2019-05-09T20:23:12.561Z,3.10
2019-05-09T20:25:42.555Z,3.97
2019-05-09T20:28:11.795Z,3.53
2019-05-09T20:30:41.026Z,3.30
2019-05-09T20:33:10.211Z,2.03
2019-05-09T20:35:39.638Z,3.30
2019-05-09T20:38:09.031Z,2.87
2019-05-09T20:40:38.844Z,2.87
2019-05-09T20:43:08.233Z,2.77
2019-05-09T20:45:37.657Z,4.67
2019-05-09T20:48:07.062Z,9.97
2019-05-09T20:50:36.475Z,4.30
2019-05-09T20:53:09.526Z,2.63
2019-05-09T20:55:36.913Z,3.70
2019-05-09T20:58:06.303Z,2.27
2019-05-09T21:00:35.719Z,3.17
2019-05-09T21:03:08.061Z,1.67
2019-05-09T21:05:37.250Z,4.93
2019-05-09T21:08:06.616Z,5.97
2019-05-09T21:10:36.019Z,4.63
2019-05-09T21:13:05.424Z,4.40
2019-05-09T21:15:34.823Z,3.07
2019-05-09T21:18:04.298Z,4.53
2019-05-09T21:20:33.686Z,4.77
2019-05-09T21:23:03.072Z,4.60
2019-05-09T21:25:33.408Z,3.13
2019-05-09T21:28:03.185Z,4.83
2019-05-09T21:30:32.585Z,1.87
2019-05-09T21:33:01.952Z,6.03
2019-05-09T21:35:31.262Z,2.67
2019-05-09T21:38:00.483Z,2.80
2019-05-09T21:40:29.685Z,5.90
2019-05-09T21:42:58.909Z,4.23
2019-05-09T21:45:28.147Z,4.23
2019-05-09T21:47:57.330Z,7.30
2019-05-09T21:50:26.564Z,3.80
2019-05-09T21:52:55.772Z,4.83
2019-05-09T21:55:24.970Z,3.20
2019-05-09T21:57:54.186Z,4.67
2019-05-09T22:00:29.108Z,3.87
2019-05-09T22:02:58.323Z,5.80
2019-05-09T22:05:27.525Z,3.27
2019-05-09T22:07:56.727Z,3.73
2019-05-09T22:10:25.960Z,4.57
2019-05-09T22:12:55.237Z,3.13
2019-05-09T22:15:24.540Z,2.47
2019-05-09T22:17:53.748Z,7.47
2019-05-09T22:20:23.073Z,7.23
2019-05-09T22:22:52.354Z,3.80
2019-05-09T22:25:21.595Z,4.30
2019-05-09T22:27:50.777Z,5.73
2019-05-09T22:30:20.657Z,4.37
2019-05-09T22:32:49.885Z,5.03
2019-05-09T22:35:19.125Z,4.20
2019-05-09T22:37:48.304Z,5.20
2019-05-09T22:40:17.624Z,4.60
2019-05-09T22:42:46.877Z,4.20
2019-05-09T22:45:16.201Z,3.83
2019-05-09T22:47:45.388Z,7.40
2019-05-09T22:50:14.586Z,10.87
2019-05-09T22:52:44.767Z,7.20
2019-05-09T22:55:14.072Z,6.47
2019-05-09T22:57:43.284Z,4.00
2019-05-09T23:00:13.440Z,7.53
2019-05-09T23:02:42.637Z,4.53
2019-05-09T23:05:11.868Z,8.53
2019-05-09T23:07:41.113Z,5.80
2019-05-09T23:10:10.342Z,5.50
2019-05-09T23:12:39.568Z,6.13
2019-05-09T23:15:10.662Z,6.37
2019-05-09T23:17:39.899Z,4.80
2019-05-09T23:20:14.008Z,4.70
2019-05-09T23:22:43.338Z,4.03
2019-05-09T23:25:12.592Z,5.10
2019-05-09T23:27:41.869Z,6.00
2019-05-09T23:30:12.744Z,7.07
2019-05-09T23:32:44.400Z,9.93
2019-05-09T23:35:13.781Z,5.03
2019-05-09T23:37:43.122Z,5.17
2019-05-09T23:40:12.758Z,3.63
2019-05-09T23:42:41.980Z,7.83
2019-05-09T23:45:11.373Z,3.70
2019-05-09T23:47:40.607Z,5.30
2019-05-09T23:50:09.884Z,7.00
2019-05-09T23:52:39.172Z,5.97
2019-05-09T23:55:26.389Z,5.80
2019-05-09T23:58:13.796Z,6.37
